createdAt,value
2022-10-13T00:00:35.956Z,17.50
2022-10-13T00:03:41.969Z,19.97
2022-10-13T00:06:46.933Z,8.93
2022-10-13T00:09:50.805Z,17.60
2022-10-13T00:12:55.187Z,10.90
2022-10-13T00:15:58.791Z,11.10
2022-10-13T00:19:02.537Z,11.23
2022-10-13T00:22:07.781Z,11.57
2022-10-13T00:25:11.566Z,11.60
2022-10-13T00:28:16.410Z,11.40
2022-10-13T00:31:24.591Z,15.83
2022-10-13T00:34:28.395Z,14.43
2022-10-13T00:37:33.455Z,15.40
2022-10-13T00:40:46.254Z,11.87
2022-10-13T00:43:57.177Z,12.67
2022-10-13T00:47:00.955Z,13.37
2022-10-13T00:50:06.331Z,14.13
2022-10-13T00:53:13.071Z,12.60
2022-10-13T00:56:20.829Z,11.97
2022-10-13T00:59:29.328Z,13.53
2022-10-13T01:02:37.877Z,13.23
2022-10-13T01:05:43.812Z,11.83
2022-10-13T01:08:48.964Z,7.83
2022-10-13T01:12:11.783Z,14.90
2022-10-13T01:15:27.046Z,13.23
2022-10-13T01:18:40.512Z,14.50
2022-10-13T01:21:57.860Z,16.33
2022-10-13T01:25:24.557Z,13.97
2022-10-13T01:29:00.400Z,13.57
2022-10-13T01:32:17.823Z,14.67
2022-10-13T01:35:34.400Z,18.10
2022-10-13T01:38:50.037Z,18.67
2022-10-13T01:42:05.520Z,19.47
2022-10-13T01:45:12.370Z,14.23
2022-10-13T01:48:20.575Z,17.07
2022-10-13T01:51:28.308Z,15.33
2022-10-13T01:54:33.495Z,15.23
2022-10-13T01:57:41.665Z,26.50
2022-10-13T02:01:00.445Z,18.67
2022-10-13T02:04:24.644Z,18.80
2022-10-13T02:07:37.506Z,9.57
2022-10-13T02:10:53.278Z,13.50
2022-10-13T02:14:07.024Z,9.40
2022-10-13T02:17:12.284Z,13.80
2022-10-13T02:20:20.413Z,11.43
2022-10-13T02:23:25.114Z,13.50
2022-10-13T02:26:30.706Z,22.10
2022-10-13T02:29:34.431Z,26.70
2022-10-13T02:32:38.011Z,16.23
2022-10-13T02:35:43.571Z,15.07
2022-10-13T02:38:47.171Z,13.40
2022-10-13T02:41:50.753Z,16.83
2022-10-13T02:44:54.354Z,15.80
2022-10-13T02:47:58.300Z,18.13
2022-10-13T02:51:03.427Z,16.00
2022-10-13T02:54:07.102Z,11.80
2022-10-13T02:57:10.659Z,11.20
2022-10-13T03:00:16.429Z,16.60
2022-10-13T03:03:20.050Z,10.63
2022-10-13T03:06:24.988Z,17.53
2022-10-13T03:09:28.886Z,16.90
2022-10-13T03:12:32.756Z,11.07
2022-10-13T03:15:36.573Z,11.40
2022-10-13T03:18:40.315Z,13.50
2022-10-13T03:21:45.472Z,14.13
2022-10-13T03:24:49.089Z,17.33
2022-10-13T03:27:52.740Z,17.67
2022-10-13T03:31:02.866Z,15.03
2022-10-13T03:34:06.418Z,10.87
2022-10-13T03:37:11.422Z,10.90
2022-10-13T03:40:15.068Z,13.83
2022-10-13T03:43:18.678Z,12.80
2022-10-13T03:46:23.929Z,13.10
2022-10-13T03:49:27.491Z,17.37
2022-10-13T03:52:32.584Z,15.83
2022-10-13T03:55:36.168Z,18.37
2022-10-13T03:58:39.749Z,11.73
2022-10-13T04:01:43.620Z,12.73
2022-10-13T04:04:47.343Z,15.77
2022-10-13T04:07:52.335Z,14.87
2022-10-13T04:11:01.179Z,11.17
2022-10-13T04:14:05.102Z,22.67
2022-10-13T04:17:08.826Z,16.67
2022-10-13T04:20:13.115Z,16.73
2022-10-13T04:23:18.131Z,15.70
2022-10-13T04:26:24.107Z,14.67
2022-10-13T04:29:27.742Z,16.63
2022-10-13T04:32:31.933Z,18.93
2022-10-13T04:35:40.242Z,18.17
2022-10-13T04:38:45.780Z,17.70
2022-10-13T04:41:49.390Z,16.40
2022-10-13T04:44:52.929Z,18.70
2022-10-13T04:47:56.522Z,21.93
2022-10-13T04:51:02.150Z,15.43
2022-10-13T04:54:07.519Z,18.93
2022-10-13T04:57:11.232Z,18.97
2022-10-13T05:00:15.900Z,17.33
2022-10-13T05:03:19.990Z,18.67
2022-10-13T05:06:26.663Z,19.07
2022-10-13T05:09:31.809Z,14.43
2022-10-13T05:12:36.097Z,18.53
2022-10-13T05:15:40.807Z,18.90
2022-10-13T05:18:44.990Z,25.73
2022-10-13T05:21:48.592Z,52.17
2022-10-13T05:24:53.477Z,32.60
2022-10-13T05:27:57.074Z,46.80
2022-10-13T05:31:11.966Z,32.40
2022-10-13T05:34:15.717Z,37.80
2022-10-13T05:37:19.369Z,66.73
2022-10-13T05:40:24.500Z,44.53
2022-10-13T05:43:28.038Z,79.10
2022-10-13T05:46:32.162Z,64.67
2022-10-13T05:49:39.851Z,47.33
2022-10-13T05:52:45.468Z,37.20
2022-10-13T05:55:51.202Z,43.60
2022-10-13T05:59:01.598Z,63.50
2022-10-13T06:02:10.742Z,42.97
2022-10-13T06:05:19.530Z,38.33
2022-10-13T06:08:23.374Z,58.43
2022-10-13T06:11:29.026Z,65.40
2022-10-13T06:14:32.984Z,60.27
2022-10-13T06:17:38.394Z,38.83
2022-10-13T06:20:42.699Z,25.20
2022-10-13T06:23:46.203Z,34.97
2022-10-13T06:26:51.633Z,29.63
2022-10-13T06:29:55.805Z,27.67
2022-10-13T06:32:59.479Z,28.27
2022-10-13T06:36:04.463Z,28.03
2022-10-13T06:39:08.542Z,31.20
2022-10-13T06:42:13.611Z,25.03
2022-10-13T06:45:17.406Z,27.53
2022-10-13T06:48:20.949Z,22.13
2022-10-13T06:51:24.603Z,26.30
2022-10-13T06:54:28.730Z,26.23
2022-10-13T06:57:34.307Z,26.20
2022-10-13T07:00:38.336Z,27.77
2022-10-13T07:03:42.384Z,27.13
2022-10-13T07:06:46.122Z,25.70
2022-10-13T07:09:49.747Z,29.70
2022-10-13T07:12:54.680Z,31.20
2022-10-13T07:15:58.310Z,28.63
2022-10-13T07:19:01.899Z,27.00
2022-10-13T07:22:06.513Z,26.30
2022-10-13T07:25:11.180Z,27.63
2022-10-13T07:28:16.315Z,26.77
2022-10-13T07:31:22.150Z,26.70
2022-10-13T07:34:25.790Z,26.03
2022-10-13T07:37:29.401Z,29.17
2022-10-13T07:40:33.106Z,30.20
2022-10-13T07:43:38.535Z,31.03
2022-10-13T07:46:42.308Z,29.03
2022-10-13T07:49:46.083Z,31.73
2022-10-13T07:52:49.767Z,32.90
2022-10-13T07:55:53.394Z,28.13
2022-10-13T07:58:58.879Z,28.27
2022-10-13T08:02:02.891Z,28.70
2022-10-13T08:05:07.470Z,29.63
2022-10-13T08:08:11.056Z,27.37
2022-10-13T08:11:17.517Z,26.10
2022-10-13T08:14:22.998Z,28.10
2022-10-13T08:17:26.602Z,30.17
2022-10-13T08:20:40.979Z,27.87
2022-10-13T08:23:47.646Z,25.10
2022-10-13T08:26:52.190Z,29.83
2022-10-13T08:29:57.142Z,27.73
2022-10-13T08:33:00.979Z,29.23
2022-10-13T08:36:05.620Z,25.20
2022-10-13T08:39:11.127Z,30.73
2022-10-13T08:42:19.048Z,26.33
2022-10-13T08:45:42.006Z,27.67
2022-10-13T08:48:46.119Z,25.73
2022-10-13T08:51:49.973Z,29.87
2022-10-13T08:54:58.479Z,24.20
2022-10-13T08:58:11.070Z,23.83
2022-10-13T09:01:20.273Z,23.67
2022-10-13T09:04:33.240Z,25.70
2022-10-13T09:07:41.132Z,23.60
2022-10-13T09:10:52.401Z,25.70
2022-10-13T09:13:58.737Z,21.93
2022-10-13T09:17:19.691Z,21.47
2022-10-13T09:20:27.923Z,22.30
2022-10-13T09:23:31.562Z,24.00
2022-10-13T09:26:40.407Z,23.07
2022-10-13T09:29:45.135Z,22.70
2022-10-13T09:32:50.150Z,20.60
2022-10-13T09:36:14.865Z,25.27
2022-10-13T09:39:19.553Z,23.53
2022-10-13T09:42:28.411Z,22.57
2022-10-13T09:45:32.248Z,21.30
2022-10-13T09:48:42.528Z,20.33
2022-10-13T09:51:48.071Z,21.87
2022-10-13T09:54:54.707Z,23.37
2022-10-13T09:58:05.179Z,23.23
2022-10-13T10:01:22.652Z,22.20
2022-10-13T10:04:38.683Z,23.77
2022-10-13T10:07:42.601Z,20.83
2022-10-13T10:10:47.302Z,22.77
2022-10-13T10:13:52.737Z,23.03
2022-10-13T10:17:07.695Z,21.37
2022-10-13T10:20:43.694Z,21.17
2022-10-13T10:23:56.819Z,22.97
2022-10-13T10:27:07.346Z,26.17
2022-10-13T10:30:18.033Z,24.07
2022-10-13T10:33:43.805Z,26.10
2022-10-13T10:36:59.075Z,22.63
2022-10-13T10:40:29.976Z,21.83
2022-10-13T10:43:55.173Z,22.67
2022-10-13T10:47:06.687Z,22.23
2022-10-13T10:50:18.164Z,23.67
2022-10-13T10:53:35.948Z,25.40
2022-10-13T10:56:45.822Z,24.03
2022-10-13T11:00:04.932Z,24.27
2022-10-13T11:03:23.314Z,23.23
2022-10-13T11:06:36.935Z,23.23
2022-10-13T11:10:18.245Z,24.30
2022-10-13T11:13:22.353Z,22.17
2022-10-13T11:16:32.216Z,20.57
2022-10-13T11:19:38.187Z,23.13
2022-10-13T11:22:41.840Z,24.97
2022-10-13T11:25:49.216Z,22.37
2022-10-13T11:28:53.096Z,19.37
2022-10-13T11:31:56.932Z,20.47
2022-10-13T11:35:03.508Z,19.43
2022-10-13T11:38:33.420Z,18.50
2022-10-13T11:41:53.719Z,19.40
2022-10-13T11:45:00.424Z,16.27
2022-10-13T11:48:59.441Z,23.13
2022-10-13T11:52:58.729Z,21.17
2022-10-13T11:56:02.666Z,17.13
2022-10-13T11:59:21.342Z,18.20
2022-10-13T12:02:28.009Z,15.63
2022-10-13T12:05:32.787Z,15.70
2022-10-13T12:08:40.323Z,19.47
2022-10-13T12:11:45.864Z,16.83
2022-10-13T12:14:54.283Z,17.13
2022-10-13T12:17:57.862Z,19.37
2022-10-13T12:21:05.737Z,17.00
2022-10-13T12:24:14.383Z,17.13
2022-10-13T12:27:23.217Z,21.07
2022-10-13T12:30:31.267Z,13.60
2022-10-13T12:33:36.889Z,16.10
2022-10-13T12:36:41.194Z,14.93
2022-10-13T12:39:45.289Z,17.60
2022-10-13T12:42:50.098Z,14.67
2022-10-13T12:45:55.195Z,11.83
2022-10-13T12:49:06.533Z,12.00
2022-10-13T12:52:17.676Z,12.53
2022-10-13T12:55:24.096Z,10.80
2022-10-13T12:58:31.755Z,13.20
2022-10-13T13:01:37.111Z,19.47
2022-10-13T13:04:44.514Z,14.17
2022-10-13T13:07:54.447Z,15.07
2022-10-13T13:11:00.080Z,18.50
2022-10-13T13:14:35.534Z,13.00
2022-10-13T13:21:07.396Z,28.63
2022-10-13T13:24:16.453Z,17.43
2022-10-13T13:27:42.080Z,18.13
2022-10-13T13:30:45.648Z,20.73
2022-10-13T13:33:51.467Z,14.97
2022-10-13T13:36:55.548Z,17.47
2022-10-13T13:39:59.603Z,19.50
2022-10-13T13:43:03.256Z,25.27
2022-10-13T13:46:08.671Z,20.70
2022-10-13T13:49:14.055Z,20.03
2022-10-13T13:52:18.751Z,20.97
2022-10-13T13:55:23.226Z,22.03
2022-10-13T13:58:26.933Z,22.13
2022-10-13T14:01:32.351Z,18.40
2022-10-13T14:04:37.560Z,20.07
2022-10-13T14:07:41.932Z,23.63
2022-10-13T14:10:45.643Z,22.40
2022-10-13T14:13:49.280Z,21.57
2022-10-13T14:16:53.050Z,19.37
2022-10-13T14:19:58.114Z,19.77
2022-10-13T14:23:02.086Z,19.87
2022-10-13T14:26:10.049Z,18.87
2022-10-13T14:29:13.732Z,16.83
2022-10-13T14:32:17.688Z,21.67
2022-10-13T14:35:22.899Z,18.23
2022-10-13T14:38:26.780Z,18.03
2022-10-13T14:41:30.519Z,20.20
2022-10-13T14:44:34.194Z,21.50
2022-10-13T14:47:37.783Z,14.23
2022-10-13T14:50:42.817Z,17.77
2022-10-13T14:53:47.327Z,16.57
2022-10-13T14:56:50.960Z,13.87
2022-10-13T14:59:58.020Z,20.17
2022-10-13T15:03:06.123Z,20.13
2022-10-13T15:06:15.233Z,15.87
2022-10-13T15:09:18.842Z,22.90
2022-10-13T15:12:23.027Z,24.23
2022-10-13T15:15:37.227Z,22.17
2022-10-13T15:18:40.799Z,23.73
2022-10-13T15:21:45.840Z,23.23
2022-10-13T15:24:50.644Z,21.53
2022-10-13T15:27:54.275Z,23.33
2022-10-13T15:30:58.095Z,29.17
2022-10-13T15:34:03.271Z,24.40
2022-10-13T15:37:08.845Z,26.33
2022-10-13T15:40:14.101Z,30.43
2022-10-13T15:43:18.360Z,28.87
2022-10-13T15:46:26.278Z,26.47
2022-10-13T15:49:30.096Z,30.83
2022-10-13T15:52:40.351Z,26.17
2022-10-13T15:55:44.218Z,30.43
2022-10-13T15:58:47.921Z,31.80
2022-10-13T16:01:51.499Z,26.27
2022-10-13T16:04:55.500Z,28.67
2022-10-13T16:08:00.611Z,29.17
2022-10-13T16:11:09.888Z,28.50
2022-10-13T16:14:13.479Z,21.43
2022-10-13T16:17:17.545Z,23.80
2022-10-13T16:20:21.210Z,25.33
2022-10-13T16:23:27.696Z,24.27
2022-10-13T16:26:31.490Z,26.80
2022-10-13T16:29:35.579Z,25.63
2022-10-13T16:32:40.217Z,21.37
2022-10-13T16:35:43.803Z,24.63
2022-10-13T16:38:49.046Z,23.10
2022-10-13T16:41:52.917Z,22.10
2022-10-13T16:44:56.499Z,20.30
2022-10-13T16:48:00.191Z,24.90
2022-10-13T16:51:08.288Z,20.27
2022-10-13T16:54:13.471Z,17.20
2022-10-13T16:57:16.982Z,17.80
2022-10-13T17:00:21.062Z,20.77
2022-10-13T17:03:24.636Z,25.70
2022-10-13T17:06:30.459Z,23.50
2022-10-13T17:09:35.480Z,21.37
2022-10-13T17:12:39.164Z,23.33
2022-10-13T17:15:51.273Z,24.07
2022-10-13T17:18:55.356Z,22.37
2022-10-13T17:21:58.959Z,19.50
2022-10-13T17:25:03.993Z,23.23
2022-10-13T17:28:07.604Z,24.37
2022-10-13T17:31:15.199Z,23.87
2022-10-13T17:34:19.115Z,27.13
2022-10-13T17:37:25.910Z,26.73
2022-10-13T17:40:33.702Z,24.03
2022-10-13T17:43:39.439Z,27.27
2022-10-13T17:46:43.068Z,29.40
2022-10-13T17:49:46.850Z,26.00
2022-10-13T17:52:50.660Z,27.43
2022-10-13T17:56:02.083Z,29.57
2022-10-13T17:59:05.643Z,31.10
2022-10-13T18:02:10.309Z,29.13
2022-10-13T18:05:14.267Z,32.73
2022-10-13T18:08:17.920Z,30.23
2022-10-13T18:11:25.384Z,27.70
2022-10-13T18:14:29.255Z,33.80
2022-10-13T18:17:32.843Z,31.73
2022-10-13T18:20:39.310Z,36.50
2022-10-13T18:23:43.969Z,32.93
2022-10-13T18:26:49.009Z,29.63
2022-10-13T18:29:52.596Z,32.57
2022-10-13T18:32:56.949Z,30.07
2022-10-13T18:36:00.711Z,35.40
2022-10-13T18:39:08.364Z,28.50
2022-10-13T18:42:13.354Z,31.23
2022-10-13T18:45:17.378Z,30.80
2022-10-13T18:48:21.196Z,29.43
2022-10-13T18:51:25.248Z,28.50
2022-10-13T18:54:30.215Z,27.83
2022-10-13T18:57:38.065Z,28.43
2022-10-13T19:00:41.861Z,32.17
2022-10-13T19:03:46.328Z,24.60
2022-10-13T19:06:50.102Z,21.97
2022-10-13T19:09:54.813Z,25.43
2022-10-13T19:12:59.807Z,20.67
2022-10-13T19:16:04.149Z,22.87
2022-10-13T19:19:09.266Z,24.67
2022-10-13T19:22:13.085Z,23.73
2022-10-13T19:25:17.710Z,23.10
2022-10-13T19:28:23.363Z,26.93
2022-10-13T19:31:30.401Z,25.40
2022-10-13T19:34:34.117Z,23.37
2022-10-13T19:37:38.980Z,22.57
2022-10-13T19:40:43.859Z,21.33
2022-10-13T19:43:49.158Z,24.60
2022-10-13T19:46:54.450Z,27.60
2022-10-13T19:49:58.163Z,27.87
2022-10-13T19:53:01.823Z,21.20
2022-10-13T19:56:07.069Z,25.10
2022-10-13T19:59:12.111Z,23.53
2022-10-13T20:02:15.957Z,24.50
2022-10-13T20:05:24.661Z,26.70
2022-10-13T20:08:29.370Z,30.70
2022-10-13T20:11:33.272Z,29.33
2022-10-13T20:14:38.647Z,29.57
2022-10-13T20:17:42.379Z,27.53
2022-10-13T20:20:46.017Z,24.10
2022-10-13T20:23:50.764Z,25.30
2022-10-13T20:26:54.532Z,28.03
2022-10-13T20:29:59.509Z,26.73
2022-10-13T20:33:03.636Z,25.50
2022-10-13T20:36:10.755Z,26.43
2022-10-13T20:39:14.495Z,28.67
2022-10-13T20:42:18.084Z,28.27
2022-10-13T20:45:23.763Z,28.70
2022-10-13T20:48:27.440Z,33.50
2022-10-13T20:51:31.268Z,30.33
2022-10-13T20:54:34.963Z,27.60
2022-10-13T20:57:38.929Z,27.27
2022-10-13T21:00:46.165Z,32.57
2022-10-13T21:03:53.417Z,30.97
2022-10-13T21:06:57.123Z,32.77
2022-10-13T21:10:00.694Z,29.63
2022-10-13T21:13:04.934Z,31.10
2022-10-13T21:16:12.881Z,34.23
2022-10-13T21:19:16.536Z,34.87
2022-10-13T21:22:21.159Z,33.03
2022-10-13T21:25:24.819Z,36.60
2022-10-13T21:28:28.724Z,45.20
2022-10-13T21:31:33.831Z,41.60
2022-10-13T21:34:37.456Z,45.47
2022-10-13T21:37:41.052Z,48.63
2022-10-13T21:40:44.723Z,44.57
2022-10-13T21:43:48.915Z,49.33
2022-10-13T21:46:53.963Z,54.27
2022-10-13T21:49:57.608Z,46.63
2022-10-13T21:53:01.316Z,47.33
2022-10-13T21:56:07.980Z,46.67
2022-10-13T21:59:14.155Z,50.70
2022-10-13T22:02:19.146Z,50.20
2022-10-13T22:05:22.786Z,48.93
2022-10-13T22:08:37.920Z,49.73
2022-10-13T22:11:43.507Z,48.83
2022-10-13T22:14:47.487Z,49.37
2022-10-13T22:17:52.419Z,50.40
2022-10-13T22:20:55.992Z,50.77
2022-10-13T22:24:02.924Z,55.20
2022-10-13T22:27:06.502Z,55.93
2022-10-13T22:30:11.473Z,52.60
2022-10-13T22:33:16.590Z,52.27
2022-10-13T22:36:23.315Z,53.87
2022-10-13T22:39:27.659Z,62.10
2022-10-13T22:42:31.168Z,59.23
2022-10-13T22:45:41.059Z,55.87
2022-10-13T22:48:46.127Z,60.53
2022-10-13T22:51:49.726Z,59.97
2022-10-13T22:54:53.313Z,60.80
2022-10-13T22:57:57.029Z,57.37
2022-10-13T23:01:06.607Z,63.40
2022-10-13T23:04:11.806Z,68.17
2022-10-13T23:07:15.351Z,60.23
2022-10-13T23:10:19.460Z,64.80
2022-10-13T23:13:23.035Z,57.60
2022-10-13T23:16:27.286Z,60.67
2022-10-13T23:19:32.284Z,55.27
2022-10-13T23:22:35.935Z,59.87
2022-10-13T23:25:39.751Z,59.63
2022-10-13T23:28:44.303Z,60.33
2022-10-13T23:31:47.982Z,59.90
2022-10-13T23:34:53.102Z,66.27
2022-10-13T23:37:56.765Z,56.90
2022-10-13T23:41:05.955Z,74.10
2022-10-13T23:44:09.565Z,72.07
2022-10-13T23:47:13.183Z,68.10
2022-10-13T23:50:18.434Z,64.40
2022-10-13T23:53:22.881Z,77.57
2022-10-13T23:56:26.583Z,79.47
2022-10-13T23:59:30.212Z,76.23
